TimeCDT,TemperatureF,Dew PointF,Humidity,Sea Level PressureIn,VisibilityMPH,Wind Direction,Wind SpeedMPH,Gust SpeedMPH,PrecipitationIn,Events,Conditions,WindDirDegrees,DateUTC
12:15 AM,89.1,60.8,39,29.91,10.0,South,11.5,-,N/A,,Clear,170,2013-06-27 05:15:00
12:35 AM,88.7,60.8,39,29.91,10.0,South,10.4,-,N/A,,Clear,170,2013-06-27 05:35:00
1:15 AM,88.2,61.3,40,29.90,10.0,South,11.5,18.4,N/A,,Clear,180,2013-06-27 06:15:00
1:35 AM,87.8,61.7,41,29.90,10.0,South,11.5,18.4,N/A,,Clear,180,2013-06-27 06:35:00
1:55 AM,87.3,61.9,42,29.90,10.0,South,11.5,18.4,N/A,,Clear,170,2013-06-27 06:55:00
2:15 AM,86.5,62.2,44,29.90,10.0,South,10.4,-,N/A,,Clear,180,2013-06-27 07:15:00
2:35 AM,86.2,62.4,45,29.90,10.0,South,9.2,-,N/A,,Clear,170,2013-06-27 07:35:00
2:55 AM,85.5,62.6,46,29.90,10.0,South,9.2,-,N/A,,Clear,180,2013-06-27 07:55:00
3:15 AM,84.4,63.0,48,29.90,10.0,South,8.1,-,N/A,,Clear,190,2013-06-27 08:15:00
3:35 AM,84.2,63.0,49,29.91,10.0,South,8.1,-,N/A,,Clear,180,2013-06-27 08:35:00
3:55 AM,83.7,63.0,50,29.91,10.0,South,5.8,-,N/A,,Clear,170,2013-06-27 08:55:00
4:15 AM,82.8,63.5,52,29.92,10.0,South,8.1,-,N/A,,Clear,180,2013-06-27 09:15:00
4:35 AM,82.6,63.9,53,29.93,10.0,South,5.8,-,N/A,,Clear,180,2013-06-27 09:35:00
4:55 AM,81.9,64.0,55,29.94,10.0,SSE,4.6,-,N/A,,Clear,160,2013-06-27 09:55:00
5:15 AM,81.0,64.4,57,29.95,10.0,South,5.8,-,N/A,,Clear,170,2013-06-27 10:15:00
5:35 AM,79.3,64.6,60,29.96,10.0,SSE,4.6,-,N/A,,Clear,160,2013-06-27 10:35:00
5:55 AM,78.8,64.6,62,29.97,10.0,SE,6.9,-,N/A,,Clear,140,2013-06-27 10:55:00
6:15 AM,78.3,64.8,63,29.97,10.0,SSE,8.1,-,N/A,,Clear,160,2013-06-27 11:15:00
6:35 AM,78.4,64.8,63,29.98,10.0,SSE,8.1,-,N/A,,Clear,160,2013-06-27 11:35:00
6:55 AM,78.3,64.9,63,29.98,10.0,SSE,8.1,-,N/A,,Clear,160,2013-06-27 11:55:00
7:15 AM,78.4,65.3,64,29.99,10.0,SSE,4.6,-,N/A,,Clear,160,2013-06-27 12:15:00
7:35 AM,79.0,65.8,64,30.00,10.0,SSE,4.6,-,N/A,,Clear,160,2013-06-27 12:35:00
7:55 AM,80.1,66.7,64,30.01,10.0,South,6.9,-,N/A,,Clear,170,2013-06-27 12:55:00
8:15 AM,82.2,67.8,62,30.02,10.0,South,9.2,-,N/A,,Clear,180,2013-06-27 13:15:00
8:35 AM,83.3,67.8,59,30.02,10.0,South,11.5,-,N/A,,Clear,190,2013-06-27 13:35:00
8:55 AM,84.2,67.6,57,30.03,10.0,South,16.1,-,N/A,,Clear,190,2013-06-27 13:55:00
9:15 AM,85.5,67.3,54,30.03,10.0,SSW,12.7,17.3,N/A,,Clear,200,2013-06-27 14:15:00
9:35 AM,86.5,66.4,51,30.03,10.0,SSW,12.7,-,N/A,,Clear,200,2013-06-27 14:35:00
9:55 AM,87.6,65.7,48,30.03,10.0,SSW,10.4,16.1,N/A,,Clear,200,2013-06-27 14:55:00
10:15 AM,89.1,64.4,44,30.03,10.0,SSW,12.7,-,N/A,,Clear,200,2013-06-27 15:15:00
10:35 AM,90.7,63.9,41,30.02,10.0,SSW,13.8,17.3,N/A,,Clear,200,2013-06-27 15:35:00
10:55 AM,91.6,62.2,37,30.01,10.0,South,15.0,19.6,N/A,,Clear,190,2013-06-27 15:55:00
11:15 AM,92.7,61.9,36,30.01,10.0,SW,9.2,-,N/A,,Clear,230,2013-06-27 16:15:00
11:35 AM,94.1,61.0,33,30.00,10.0,SSW,11.5,16.1,N/A,,Clear,210,2013-06-27 16:35:00
11:55 AM,95.2,60.1,31,29.99,10.0,South,10.4,17.3,N/A,,Clear,190,2013-06-27 16:55:00
12:15 PM,96.6,59.4,29,29.99,10.0,SSW,11.5,-,N/A,,Clear,210,2013-06-27 17:15:00
12:35 PM,97.2,59.0,28,29.99,10.0,WSW,11.5,-,N/A,,Clear,240,2013-06-27 17:35:00
12:55 PM,98.1,59.7,28,29.99,10.0,SW,5.8,-,N/A,,Clear,230,2013-06-27 17:55:00
1:15 PM,99.3,58.3,26,29.98,10.0,South,8.1,-,N/A,,Clear,190,2013-06-27 18:15:00
1:35 PM,99.5,57.0,24,29.98,10.0,SSW,8.1,-,N/A,,Clear,200,2013-06-27 18:35:00
1:55 PM,100.0,55.9,23,29.97,10.0,South,10.4,-,N/A,,Clear,190,2013-06-27 18:55:00
2:15 PM,101.1,55.4,22,29.96,10.0,South,5.8,-,N/A,,Clear,190,2013-06-27 19:15:00
2:35 PM,101.5,56.3,22,29.96,10.0,South,5.8,-,N/A,,Clear,170,2013-06-27 19:35:00
2:55 PM,101.7,53.6,20,29.96,10.0,South,5.8,-,N/A,,Clear,170,2013-06-27 19:55:00
3:15 PM,102.2,53.2,19,29.95,10.0,South,4.6,-,N/A,,Clear,190,2013-06-27 20:15:00
3:35 PM,102.7,53.8,20,29.95,10.0,South,5.8,-,N/A,,Clear,170,2013-06-27 20:35:00
3:55 PM,103.1,53.4,19,29.94,10.0,SSE,9.2,-,N/A,,Clear,150,2013-06-27 20:55:00
4:15 PM,103.5,52.7,18,29.93,10.0,SSW,5.8,-,N/A,,Clear,200,2013-06-27 21:15:00
4:35 PM,104.2,50.4,16,29.93,10.0,SSE,6.9,-,N/A,,Clear,160,2013-06-27 21:35:00
4:55 PM,104.0,51.1,17,29.92,10.0,South,4.6,-,N/A,,Clear,190,2013-06-27 21:55:00
5:15 PM,104.0,50.4,17,29.92,10.0,South,6.9,-,N/A,,Clear,180,2013-06-27 22:15:00
5:35 PM,104.0,52.2,18,29.91,10.0,SSE,8.1,-,N/A,,Clear,160,2013-06-27 22:35:00
5:55 PM,103.8,52.0,18,29.90,10.0,SSW,3.5,-,N/A,,Clear,210,2013-06-27 22:55:00
6:15 PM,103.6,52.7,18,29.90,10.0,South,5.8,-,N/A,,Clear,190,2013-06-27 23:15:00
6:35 PM,103.6,52.0,18,29.90,10.0,SE,9.2,-,N/A,,Clear,130,2013-06-27 23:35:00
6:55 PM,102.9,52.0,18,29.90,10.0,SE,8.1,-,N/A,,Clear,140,2013-06-27 23:55:00
7:15 PM,102.2,52.2,19,29.89,10.0,SSE,8.1,-,N/A,,Clear,150,2013-06-28 00:15:00
7:35 PM,101.3,52.5,19,29.89,10.0,SE,9.2,-,N/A,,Clear,140,2013-06-28 00:35:00
7:55 PM,100.4,52.0,20,29.88,10.0,SE,11.5,18.4,N/A,,Clear,140,2013-06-28 00:55:00
8:15 PM,98.6,52.3,21,29.88,10.0,SSE,8.1,-,N/A,,Clear,150,2013-06-28 01:15:00
8:35 PM,97.2,52.7,22,29.89,10.0,SSE,8.1,-,N/A,,Clear,150,2013-06-28 01:35:00
8:55 PM,95.4,53.1,24,29.89,10.0,SSE,8.1,-,N/A,,Clear,150,2013-06-28 01:55:00
9:15 PM,93.6,53.4,26,29.90,10.0,SE,6.9,-,N/A,,Clear,140,2013-06-28 02:15:00
9:35 PM,91.8,54.0,28,29.91,10.0,SE,8.1,-,N/A,,Clear,140,2013-06-28 02:35:00
9:55 PM,90.7,54.5,29,29.92,10.0,SE,9.2,-,N/A,,Clear,140,2013-06-28 02:55:00
10:15 PM,89.8,54.7,30,29.94,10.0,SE,8.1,-,N/A,,Clear,140,2013-06-28 03:15:00
10:35 PM,88.7,55.4,32,29.96,10.0,SSE,9.2,-,N/A,,Clear,150,2013-06-28 03:35:00
10:55 PM,88.3,55.6,33,29.96,10.0,SSE,8.1,-,N/A,,Clear,150,2013-06-28 03:55:00
11:15 PM,87.1,55.9,35,29.96,10.0,SSE,10.4,-,N/A,,Clear,150,2013-06-28 04:15:00
11:35 PM,87.8,55.9,34,29.96,10.0,SSE,10.4,-,N/A,,Clear,150,2013-06-28 04:35:00
11:55 PM,87.3,56.5,35,29.96,10.0,SSE,9.2,-,N/A,,Clear,160,2013-06-28 04:55:00